Time;durP1;ratioP1;P1;durP2;ratioP2;P2;SDS_P1;SDS_P2;PMS_P1;PMS_P2;Temp;Humidity;BMP_temperature;BMP_pressure;BME280_temperature;BME280_humidity;BME280_pressure;Samples;Min_cycle;Max_cycle;Signal;HPM_P1;HPM_P2
2023/07/09 00:00:21;;;;;;;5.83;4.10;;;;;;;24.11;nan;99742.69;4943337;28;20264;-78
2023/07/09 00:02:48;;;;;;;6.07;3.77;;;;;;;24.07;nan;99742.22;4948093;28;20225;-77
2023/07/09 00:05:15;;;;;;;10.87;4.10;;;;;;;24.07;nan;99744.91;4950865;28;20211;-76
2023/07/09 00:07:44;;;;;;;5.30;4.10;;;;;;;24.08;nan;99746.56;4951913;28;21198;-77
2023/07/09 00:10:18;;;;;;;6.60;4.43;;;;;;;24.01;nan;99740.28;4949940;28;20473;-78
2023/07/09 00:12:44;;;;;;;4.97;4.50;;;;;;;23.92;nan;99738.66;4952146;28;20508;-79
2023/07/09 00:15:11;;;;;;;8.43;5.90;;;;;;;23.84;nan;99736.06;4954564;28;21458;-77
2023/07/09 00:17:37;;;;;;;5.30;3.77;;;;;;;23.78;nan;99734.09;4948918;28;20731;-77
2023/07/09 00:20:13;;;;;;;7.33;5.07;;;;;;;;;;4954711;28;21221;-78
2023/07/09 00:22:39;;;;;;;5.83;4.13;;;;;;;23.72;nan;99740.19;4954829;28;20311;-78
2023/07/09 00:25:05;;;;;;;6.20;4.20;;;;;;;23.70;nan;99731.44;4949934;28;20478;-79
2023/07/09 00:27:31;;;;;;;5.07;4.30;;;;;;;23.70;nan;99729.59;4955408;28;20862;-77
2023/07/09 00:29:56;;;;;;;5.53;4.80;;;;;;;23.71;nan;99736.69;4952122;28;20266;-77
2023/07/09 00:32:24;;;;;;;4.53;3.90;;;;;;;23.72;nan;99742.88;4956307;28;20290;-78
2023/07/09 00:34:53;;;;;;;5.70;4.30;;;;;;;23.72;nan;99748.25;4954136;28;20474;-78
2023/07/09 00:37:25;;;;;;;6.17;4.40;;;;;;;23.72;nan;99749.06;4954566;28;20946;-78
2023/07/09 00:39:51;;;;;;;5.97;5.00;;;;;;;23.73;nan;99750.72;4952448;28;21011;-77
2023/07/09 00:42:21;;;;;;;5.33;4.07;;;;;;;23.72;nan;99748.25;4953835;28;20582;-77
2023/07/09 00:44:56;;;;;;;4.20;3.83;;;;;;;23.70;nan;99739.50;4952587;28;20658;-77
2023/07/09 00:47:26;;;;;;;5.80;4.60;;;;;;;23.67;nan;99742.53;4954097;28;20522;-77
2023/07/09 00:50:09;;;;;;;3.60;3.30;;;;;;;23.62;nan;99741.22;4969312;28;21014;-79
2023/07/09 00:52:50;;;;;;;4.33;3.93;;;;;;;23.58;nan;99745.28;4955534;28;20446;-77
2023/07/09 00:55:21;;;;;;;4.43;4.00;;;;;;;23.56;nan;99741.13;4952815;28;20987;-77
2023/07/09 00:57:55;;;;;;;4.30;3.90;;;;;;;23.53;nan;99750.34;4951343;28;20905;-79
2023/07/09 01:00:25;;;;;;;4.83;4.00;;;;;;;23.46;nan;99749.38;4955428;28;20939;-78
2023/07/09 01:02:50;;;;;;;5.30;3.40;;;;;;;23.40;nan;99750.09;4958716;28;21017;-77
2023/07/09 01:05:19;;;;;;;5.28;4.50;;;;;;;23.32;nan;99758.19;4958884;28;20939;-77
2023/07/09 01:07:45;;;;;;;8.83;5.37;;;;;;;23.19;nan;99750.72;4943199;28;20218;-77
2023/07/09 01:10:13;;;;;;;6.70;5.03;;;;;;;23.06;nan;99747.75;4956326;28;20559;-77
2023/07/09 01:12:39;;;;;;;7.50;5.53;;;;;;;22.95;nan;99744.44;4940474;28;20957;-76
2023/07/09 01:15:07;;;;;;;6.70;5.10;;;;;;;22.90;nan;99745.94;4942648;28;21022;-77
2023/07/09 01:17:33;;;;;;;5.53;4.60;;;;;;;22.89;nan;99741.63;4944840;28;21021;-77
2023/07/09 01:19:58;;;;;;;5.60;4.80;;;;;;;22.90;nan;99744.13;4956325;28;20468;-78
2023/07/09 01:22:24;;;;;;;7.33;4.40;;;;;;;22.90;nan;99744.13;4957705;28;20242;-79
2023/07/09 01:25:05;;;;;;;5.27;4.30;;;;;;;22.92;nan;99746.63;4940067;28;20773;-78
2023/07/09 01:27:39;;;;;;;6.70;4.80;;;;;;;22.91;nan;99748.47;4958994;28;20472;-78
2023/07/09 01:30:09;;;;;;;7.63;4.57;;;;;;;22.93;nan;99745.63;4957460;28;20464;-77
2023/07/09 01:32:37;;;;;;;7.63;4.73;;;;;;;22.93;nan;99741.09;4958969;28;20998;-77
2023/07/09 01:35:06;;;;;;;5.53;4.10;;;;;;;22.91;nan;99740.44;4961686;28;20493;-78
2023/07/09 01:37:35;;;;;;;6.33;4.70;;;;;;;22.92;nan;99735.91;4959550;28;20240;-78
2023/07/09 01:40:05;;;;;;;7.77;4.73;;;;;;;22.89;nan;99736.25;4957139;23;20529;-82
2023/07/09 01:42:32;;;;;;;6.00;4.43;;;;;;;22.85;nan;99735.78;4947995;28;20868;-81
2023/07/09 01:44:57;;;;;;;5.47;4.77;;;;;;;22.81;nan;99741.66;4941530;28;20470;-81
2023/07/09 01:47:24;;;;;;;5.67;4.57;;;;;;;22.74;nan;99739.66;4977043;28;20887;-85
2023/07/09 01:49:57;;;;;;;5.27;4.20;;;;;;;22.71;nan;99729.31;4956957;28;20279;-85
2023/07/09 01:52:24;;;;;;;5.80;4.40;;;;;;;22.70;nan;99738.34;4979436;28;20443;-86
2023/07/09 01:54:50;;;;;;;5.80;4.40;;;;;;;22.69;nan;99747.38;4980939;28;20641;-84
2023/07/09 01:57:24;;;;;;;5.00;4.50;;;;;;;22.67;nan;99751.25;4974718;28;20999;-84
2023/07/09 01:59:54;;;;;;;5.67;4.40;;;;;;;22.62;nan;99750.91;4953124;28;20210;-86
2023/07/09 02:02:25;;;;;;;4.33;3.90;;;;;;;22.58;nan;99750.44;4953684;28;20482;-86
2023/07/09 02:04:53;;;;;;;6.80;5.43;;;;;;;22.55;nan;99748.09;4951397;28;20467;-85
2023/07/09 02:07:20;;;;;;;7.13;5.70;;;;;;;22.49;nan;99752.31;4971277;28;21007;-85
2023/07/09 02:09:46;;;;;;;7.07;4.63;;;;;;;22.39;nan;99754.34;4982947;28;20442;-84
2023/07/09 02:12:14;;;;;;;7.50;5.20;;;;;;;22.30;nan;99750.84;4968909;28;20473;-83
2023/07/09 02:14:40;;;;;;;8.10;5.00;;;;;;;22.21;nan;99748.34;4966628;28;20759;-84
2023/07/09 02:17:07;;;;;;;6.40;5.00;;;;;;;22.09;nan;99755.84;4968771;28;20466;-85
2023/07/09 02:19:33;;;;;;;9.97;4.90;;;;;;;21.98;nan;99761.50;4968094;28;20556;-84
2023/07/09 02:21:58;;;;;;;5.63;4.23;;;;;;;21.82;nan;99751.69;4966250;28;20890;-84
2023/07/09 02:24:27;;;;;;;7.83;5.07;;;;;;;21.68;nan;99753.16;4968153;28;20227;-85
2023/07/09 02:27:01;;;;;;;9.17;4.50;;;;;;;21.58;nan;99758.66;4966252;28;20252;-84
2023/07/09 02:29:28;;;;;;;6.60;5.83;;;;;;;21.52;nan;99753.97;4968803;28;20443;-83
2023/07/09 02:31:55;;;;;;;12.93;5.80;;;;;;;21.49;nan;99761.47;4981614;28;20681;-83
2023/07/09 02:34:25;;;;;;;6.60;4.50;;;;;;;21.51;nan;99756.81;4981206;28;20449;-83
2023/07/09 02:36:54;;;;;;;7.13;5.50;;;;;;;21.57;nan;99759.66;4962567;28;20444;-86
2023/07/09 02:39:20;;;;;;;8.27;5.80;;;;;;;21.60;nan;99761.16;4965272;28;20239;-85
2023/07/09 02:41:46;;;;;;;8.13;5.30;;;;;;;21.62;nan;99761.84;4962155;28;20439;-82
2023/07/09 02:44:12;;;;;;;6.90;4.70;;;;;;;21.63;nan;99763.53;4969152;28;20472;-83
2023/07/09 02:46:37;;;;;;;6.10;5.17;;;;;;;21.60;nan;99761.16;4971445;28;20263;-85
2023/07/09 02:49:05;;;;;;;5.83;4.80;;;;;;;21.56;nan;99767.84;4966764;28;20425;-83
2023/07/09 02:51:33;;;;;;;5.83;4.10;;;;;;;21.56;nan;99771.34;4967201;28;20218;-84
2023/07/09 02:54:00;;;;;;;8.37;5.17;;;;;;;21.60;nan;99778.06;4968926;28;20460;-82
2023/07/09 02:56:25;;;;;;;5.23;4.60;;;;;;;21.64;nan;99773.22;4968887;28;20900;-84
2023/07/09 02:58:51;;;;;;;6.80;4.77;;;;;;;21.60;nan;99771.84;4968849;28;20873;-84
2023/07/09 03:01:17;;;;;;;6.30;4.73;;;;;;;21.51;nan;99772.84;4967935;28;20223;-83
2023/07/09 03:03:43;;;;;;;6.00;4.87;;;;;;;21.39;nan;99775.84;4967672;28;21067;-85
2023/07/09 03:06:09;;;;;;;7.83;4.47;;;;;;;21.34;nan;99767.44;4970552;28;20483;-82
2023/07/09 03:08:37;;;;;;;10.87;5.13;;;;;;;21.34;nan;99770.09;4969795;28;20219;-84
2023/07/09 03:11:10;;;;;;;7.60;4.60;;;;;;;21.37;nan;99775.16;4968704;28;20775;-84
2023/07/09 03:13:36;;;;;;;4.50;4.10;;;;;;;21.40;nan;99769.47;4968966;28;21191;-84
2023/07/09 03:16:01;;;;;;;5.43;4.37;;;;;;;21.43;nan;99769.16;4970208;28;20455;-84
2023/07/09 03:18:27;;;;;;;6.40;4.40;;;;;;;21.48;nan;99763.31;4968926;28;20221;-85
2023/07/09 03:20:52;;;;;;;6.10;4.93;;;;;;;21.51;nan;99767.50;4967855;28;20475;-85
2023/07/09 03:23:18;;;;;;;6.50;4.20;;;;;;;21.54;nan;99775.19;4967706;28;20307;-82
2023/07/09 03:25:44;;;;;;;6.97;5.40;;;;;;;21.58;nan;99776.53;4958373;28;20274;-84
2023/07/09 03:28:11;;;;;;;6.80;5.20;;;;;;;21.57;nan;99778.34;4967399;28;20300;-84
2023/07/09 03:30:55;;;;;;;5.80;4.97;;;;;;;21.52;nan;99783.38;4967383;28;20231;-84
2023/07/09 03:33:21;;;;;;;4.63;4.23;;;;;;;21.46;nan;99784.03;4970492;28;20461;-82
2023/07/09 03:35:47;;;;;;;5.27;4.77;;;;;;;21.43;nan;99779.00;4968708;28;20482;-85
2023/07/09 03:38:13;;;;;;;5.70;4.70;;;;;;;21.42;nan;99780.03;4970175;28;20222;-85
2023/07/09 03:40:39;;;;;;;8.40;4.73;;;;;;;21.39;nan;99785.69;4971299;28;20230;-84
2023/07/09 03:43:05;;;;;;;4.50;4.07;;;;;;;21.34;nan;99788.81;4974475;28;20256;-83
2023/07/09 03:45:32;;;;;;;7.30;4.57;;;;;;;21.27;nan;99798.47;4985993;28;20323;-84
2023/07/09 03:47:58;;;;;;;6.83;5.07;;;;;;;21.23;nan;99796.31;4972850;28;20471;-84
2023/07/09 03:50:24;;;;;;;5.90;4.77;;;;;;;21.20;nan;99792.94;4975314;28;20517;-84
2023/07/09 03:52:49;;;;;;;5.30;4.37;;;;;;;21.20;nan;99797.47;4973547;28;20218;-83
2023/07/09 03:55:15;;;;;;;6.13;5.47;;;;;;;21.18;nan;99797.59;4975517;28;20573;-83
2023/07/09 03:57:40;;;;;;;4.93;4.50;;;;;;;21.21;nan;99789.25;4975307;28;20222;-84
2023/07/09 04:00:10;;;;;;;9.77;4.77;;;;;;;21.26;nan;99793.31;4974267;28;20221;-84
2023/07/09 04:02:43;;;;;;;6.60;5.30;;;;;;;21.29;nan;99800.97;4972019;28;20240;-83
2023/07/09 04:05:09;;;;;;;10.70;4.70;;;;;;;21.31;nan;99799.00;4972591;28;20460;-84
2023/07/09 04:07:35;;;;;;;5.90;5.20;;;;;;;21.33;nan;99797.84;4958480;28;20472;-76
2023/07/09 04:10:00;;;;;;;6.70;4.73;;;;;;;21.34;nan;99791.47;4955387;28;20238;-79
2023/07/09 04:12:26;;;;;;;5.00;4.33;;;;;;;21.37;nan;99801.00;4956783;28;20459;-79
2023/07/09 04:14:51;;;;;;;6.97;6.37;;;;;;;21.37;nan;99795.66;4956458;28;20220;-79
2023/07/09 04:17:16;;;;;;;4.47;3.97;;;;;;;21.36;nan;99797.50;4955540;28;20257;-79
2023/07/09 04:19:42;;;;;;;4.80;4.37;;;;;;;21.40;nan;99796.19;4956184;28;20241;-79
2023/07/09 04:22:10;;;;;;;4.23;3.83;;;;;;;21.42;nan;99802.22;4954795;28;20260;-79
2023/07/09 04:24:36;;;;;;;5.90;5.23;;;;;;;21.44;nan;99799.38;4957449;28;20618;-79
2023/07/09 04:27:02;;;;;;;5.23;4.53;;;;;;;21.38;nan;99813.41;4957912;28;20477;-80
2023/07/09 04:29:33;;;;;;;5.63;4.93;;;;;;;21.26;nan;99810.16;4956837;28;20219;-79
2023/07/09 04:31:59;;;;;;;5.87;4.23;;;;;;;21.22;nan;99811.47;4957550;28;21051;-79
2023/07/09 04:34:25;;;;;;;5.57;4.63;;;;;;;21.22;nan;99814.13;4956519;28;20443;-79
2023/07/09 04:36:50;;;;;;;7.67;5.30;;;;;;;21.28;nan;99820.66;4957720;28;20813;-79
2023/07/09 04:39:16;;;;;;;6.40;4.97;;;;;;;21.32;nan;99816.69;4954957;28;20219;-80
2023/07/09 04:41:41;;;;;;;6.17;4.57;;;;;;;21.38;nan;99821.41;4976467;28;20230;-79
2023/07/09 04:44:07;;;;;;;6.13;5.20;;;;;;;21.45;nan;99817.09;4977178;28;20238;-80
2023/07/09 04:46:32;;;;;;;8.70;5.10;;;;;;;21.54;nan;99820.63;4979248;28;20219;-80
2023/07/09 04:48:58;;;;;;;5.93;5.10;;;;;;;21.67;nan;99823.66;4975383;28;20231;-79
2023/07/09 04:51:23;;;;;;;5.67;5.17;;;;;;;21.81;nan;99828.34;4976495;28;20279;-79
2023/07/09 04:53:51;;;;;;;5.90;4.50;;;;;;;21.97;nan;99816.03;4975253;28;20572;-79
2023/07/09 04:56:17;;;;;;;5.67;5.07;;;;;;;22.29;nan;99816.06;4976125;28;20223;-79
2023/07/09 04:58:43;;;;;;;6.73;4.53;;;;;;;22.79;nan;99815.97;4974540;28;20448;-80
2023/07/09 05:01:08;;;;;;;9.53;5.00;;;;;;;23.30;nan;99816.47;4976077;28;20807;-79
2023/07/09 05:03:34;;;;;;;7.43;5.00;;;;;;;23.82;nan;99808.69;4975458;28;20280;-79
2023/07/09 05:05:59;;;;;;;7.50;6.10;;;;;;;24.36;nan;99802.38;4975916;28;21122;-81
2023/07/09 05:08:25;;;;;;;6.00;4.63;;;;;;;24.85;nan;99801.88;4976214;28;20216;-79
2023/07/09 05:10:52;;;;;;;5.43;3.83;;;;;;;25.33;nan;99807.72;4975826;28;20324;-79
2023/07/09 05:13:18;;;;;;;8.50;4.80;;;;;;;25.80;nan;99803.66;4975227;28;20221;-80
2023/07/09 05:15:46;;;;;;;6.50;4.70;;;;;;;26.25;nan;99811.56;4976867;28;20490;-80
2023/07/09 05:18:13;;;;;;;5.20;4.70;;;;;;;26.69;nan;99797.81;4976073;28;20482;-79
2023/07/09 05:20:40;;;;;;;4.30;3.90;;;;;;;27.05;nan;99796.78;4975719;28;20490;-79
2023/07/09 05:23:05;;;;;;;7.40;4.50;;;;;;;27.39;nan;99797.78;4974762;28;20912;-80
2023/07/09 05:25:31;;;;;;;8.57;3.90;;;;;;;27.78;nan;99801.59;4974662;28;20519;-79
2023/07/09 05:28:00;;;;;;;6.80;4.67;;;;;;;28.17;nan;99789.22;4973826;28;20377;-79
2023/07/09 05:30:26;;;;;;;5.17;4.67;;;;;;;28.50;nan;99785.69;4975895;28;20279;-79
2023/07/09 05:32:53;;;;;;;5.70;4.10;;;;;;;28.69;nan;99792.94;4972969;28;20573;-80
2023/07/09 05:35:19;;;;;;;5.47;3.60;;;;;;;28.79;nan;99789.81;4971099;28;20441;-79
2023/07/09 05:37:47;;;;;;;4.17;3.63;;;;;;;28.93;nan;99798.72;4975016;28;20455;-80
2023/07/09 05:40:13;;;;;;;6.13;3.60;;;;;;;29.10;nan;99794.50;4974459;28;20227;-80
2023/07/09 05:42:38;;;;;;;6.23;4.37;;;;;;;29.29;nan;99798.16;4963287;28;20498;-81
2023/07/09 05:45:04;;;;;;;3.77;3.20;;;;;;;29.52;nan;99794.94;4979904;28;20209;-81
2023/07/09 05:47:30;;;;;;;3.83;3.43;;;;;;;29.84;nan;99801.25;4973085;28;20410;-79
2023/07/09 05:49:55;;;;;;;5.17;3.70;;;;;;;30.14;nan;99793.28;4972226;28;21115;-80
2023/07/09 05:52:22;;;;;;;6.70;4.27;;;;;;;30.31;nan;99796.31;4974265;28;20301;-78
2023/07/09 05:54:51;;;;;;;4.97;4.03;;;;;;;30.62;nan;99789.97;4975520;28;20442;-78
2023/07/09 05:57:17;;;;;;;5.40;3.97;;;;;;;30.96;nan;99784.19;4972765;28;20771;-80
2023/07/09 05:59:43;;;;;;;4.13;3.63;;;;;;;31.29;nan;99789.22;4974721;28;20477;-79
2023/07/09 06:02:11;;;;;;;4.20;3.80;;;;;;;31.64;nan;99783.94;4974740;28;20470;-79
2023/07/09 06:04:37;;;;;;;4.80;3.90;;;;;;;31.92;nan;99785.22;4972442;28;20255;-79
2023/07/09 06:07:03;;;;;;;9.07;4.00;;;;;;;32.12;nan;99779.47;4974650;28;20733;-79
2023/07/09 06:09:30;;;;;;;7.10;3.80;;;;;;;32.27;nan;99779.84;4955501;28;20214;-79
2023/07/09 06:11:56;;;;;;;4.03;3.60;;;;;;;32.44;nan;99787.31;4977903;28;20486;-80
2023/07/09 06:14:21;;;;;;;5.60;4.20;;;;;;;32.66;nan;99793.81;4980343;28;20860;-80
2023/07/09 06:16:47;;;;;;;4.80;3.93;;;;;;;32.95;nan;99780.31;4977189;28;20191;-80
2023/07/09 06:19:12;;;;;;;4.00;3.60;;;;;;;33.20;nan;99789.00;4978020;28;20204;-79
2023/07/09 06:21:39;;;;;;;4.37;3.73;;;;;;;33.44;nan;99791.66;4982066;28;20544;-80
2023/07/09 06:24:06;;;;;;;4.47;4.00;;;;;;;33.57;nan;99785.94;4979196;28;20216;-79
2023/07/09 06:26:32;;;;;;;6.13;4.43;;;;;;;33.62;nan;99782.44;4974290;28;20466;-79
2023/07/09 06:28:57;;;;;;;5.93;4.73;;;;;;;33.46;nan;99773.16;4979694;28;20466;-80
2023/07/09 06:31:24;;;;;;;4.60;3.97;;;;;;;33.42;nan;99774.72;4971626;28;20230;-80
2023/07/09 06:33:50;;;;;;;4.47;3.87;;;;;;;33.37;nan;99775.44;4978633;28;20666;-79
2023/07/09 06:36:17;;;;;;;6.80;4.15;;;;;;;33.52;nan;99777.63;4977897;28;20776;-80
2023/07/09 06:38:44;;;;;;;4.87;4.30;;;;;;;33.46;nan;99775.91;4979557;28;20216;-79
2023/07/09 06:41:10;;;;;;;4.63;4.20;;;;;;;33.54;nan;99774.69;4979762;28;21134;-79
2023/07/09 06:43:38;;;;;;;5.83;3.50;;;;;;;33.79;nan;99775.16;4980565;28;20469;-80
2023/07/09 06:46:05;;;;;;;4.73;4.27;;;;;;;34.14;nan;99774.13;4957469;28;20487;-80
2023/07/09 06:48:30;;;;;;;5.20;4.80;;;;;;;34.49;nan;99768.38;4978507;28;20478;-80
2023/07/09 06:50:57;;;;;;;4.73;4.30;;;;;;;34.76;nan;99760.31;4980158;28;20864;-80
2023/07/09 06:53:23;;;;;;;4.70;3.30;;;;;;;34.98;nan;99760.31;4977849;28;20741;-80
2023/07/09 06:55:49;;;;;;;4.87;3.60;;;;;;;35.29;nan;99757.13;4973229;28;20447;-80
2023/07/09 06:58:19;;;;;;;4.53;3.53;;;;;;;35.64;nan;99762.16;4978971;28;20470;-81
2023/07/09 07:00:45;;;;;;;9.23;3.80;;;;;;;35.78;nan;99759.81;4980255;28;20474;-79
2023/07/09 07:03:11;;;;;;;3.80;3.50;;;;;;;35.85;nan;99763.16;4979863;28;20473;-80
2023/07/09 07:05:36;;;;;;;3.63;3.33;;;;;;;35.95;nan;99766.00;4986073;28;20857;-80
2023/07/09 07:08:03;;;;;;;3.70;3.33;;;;;;;35.76;nan;99753.81;4987997;28;20211;-80
2023/07/09 07:10:29;;;;;;;4.67;4.10;;;;;;;35.52;nan;99754.09;4983003;28;20222;-80
2023/07/09 07:12:55;;;;;;;6.10;4.10;;;;;;;35.46;nan;99753.22;4983658;28;20463;-80
2023/07/09 07:15:24;;;;;;;7.23;4.00;;;;;;;35.48;nan;99750.22;4960772;28;20910;-80
2023/07/09 07:17:49;;;;;;;4.50;3.20;;;;;;;35.75;nan;99747.50;4985639;28;20455;-80
2023/07/09 07:20:16;;;;;;;5.13;4.00;;;;;;;35.97;nan;99743.84;4984720;28;20487;-80
2023/07/09 07:22:42;;;;;;;4.80;4.40;;;;;;;36.16;nan;99739.66;4983942;28;20236;-80
2023/07/09 07:25:08;;;;;;;5.27;3.90;;;;;;;36.45;nan;99742.00;4984963;28;20999;-80
2023/07/09 07:27:34;;;;;;;4.87;4.10;;;;;;;36.60;nan;99750.34;4987709;28;20228;-81
2023/07/09 07:30:00;;;;;;;6.83;3.97;;;;;;;36.54;nan;99745.94;4990346;28;20862;-80
2023/07/09 07:32:25;;;;;;;3.93;3.20;;;;;;;36.62;nan;99752.78;4989125;28;20526;-80
2023/07/09 07:34:51;;;;;;;4.72;3.45;;;;;;;36.66;nan;99738.31;4990483;28;20355;-81
2023/07/09 07:37:20;;;;;;;4.23;3.80;;;;;;;36.59;nan;99742.38;4977751;28;20206;-80
2023/07/09 07:42:45;;;;;;;4.30;3.90;;;;;;;36.72;nan;99745.44;4821015;29;20795;-76
2023/07/09 07:45:11;;;;;;;5.27;3.00;;;;;;;36.87;nan;99746.63;4833237;29;20467;-76
2023/07/09 07:47:36;;;;;;;4.77;3.77;;;;;;;37.03;nan;99745.63;4841101;29;20512;-75
2023/07/09 07:50:02;;;;;;;3.80;3.30;;;;;;;37.08;nan;99748.38;4841205;29;20573;-77
2023/07/09 07:52:28;;;;;;;4.80;3.50;;;;;;;37.12;nan;99737.69;4858205;29;20431;-75
2023/07/09 07:54:54;;;;;;;4.20;3.57;;;;;;;37.12;nan;99733.03;4858475;29;20545;-76
2023/07/09 07:57:19;;;;;;;6.13;3.50;;;;;;;37.09;nan;99741.78;4859139;29;20467;-75
2023/07/09 07:59:46;;;;;;;5.07;3.50;;;;;;;37.12;nan;99741.25;4859641;29;20694;-75
2023/07/09 08:02:14;;;;;;;4.80;3.70;;;;;;;37.18;nan;99740.16;4858236;29;20218;-75
2023/07/09 08:04:42;;;;;;;3.37;2.90;;;;;;;37.06;nan;99733.31;4860278;29;20466;-76
2023/07/09 08:07:09;;;;;;;3.50;2.90;;;;;;;36.97;nan;99731.06;4858663;29;21140;-76
2023/07/09 08:09:35;;;;;;;4.30;3.57;;;;;;;37.01;nan;99733.25;4861292;29;20478;-75
2023/07/09 08:12:02;;;;;;;4.40;3.60;;;;;;;37.05;nan;99740.69;4858393;29;20483;-76
2023/07/09 08:14:27;;;;;;;4.47;3.77;;;;;;;37.02;nan;99741.22;4857227;29;20295;-75
2023/07/09 08:16:52;;;;;;;6.63;3.80;;;;;;;36.79;nan;99745.22;4858560;29;20478;-75
2023/07/09 08:19:19;;;;;;;5.20;3.90;;;;;;;36.63;nan;99747.06;4861304;29;20199;-75
2023/07/09 08:21:45;;;;;;;8.43;3.57;;;;;;;36.50;nan;99745.59;4858949;29;20566;-75
2023/07/09 08:24:11;;;;;;;4.73;3.23;;;;;;;36.35;nan;99753.72;4857122;29;20975;-75
2023/07/09 08:26:37;;;;;;;4.20;3.47;;;;;;;36.08;nan;99743.69;4858816;29;20339;-75
2023/07/09 08:29:04;;;;;;;5.07;4.07;;;;;;;35.90;nan;99746.81;4859404;29;20564;-75
2023/07/09 08:31:29;;;;;;;3.70;3.40;;;;;;;35.83;nan;99752.47;4861637;29;20543;-75
2023/07/09 08:33:55;;;;;;;4.00;3.43;;;;;;;35.62;nan;99748.75;4862417;29;20459;-75
2023/07/09 08:36:20;;;;;;;4.27;3.87;;;;;;;35.34;nan;99749.00;4863430;29;20719;-76
2023/07/09 08:38:45;;;;;;;4.30;3.90;;;;;;;35.23;nan;99748.06;4864676;29;20473;-75
2023/07/09 08:41:40;;;;;;;4.47;3.27;;;;;;;35.29;nan;99747.03;4869067;29;20228;-75
2023/07/09 08:44:08;;;;;;;4.80;3.90;;;;;;;35.47;nan;99745.84;4870137;29;20848;-75
2023/07/09 08:46:55;;;;;;;4.37;4.00;;;;;;;35.48;nan;99733.81;4881613;29;20550;-75
2023/07/09 08:49:37;;;;;;;3.87;3.23;;;;;;;35.60;nan;99739.19;4881353;29;20642;-76
2023/07/09 08:52:10;;;;;;;3.60;3.30;;;;;;;35.79;nan;99748.63;4883002;29;21009;-76
2023/07/09 08:54:36;;;;;;;3.70;3.20;;;;;;;35.86;nan;99745.66;4879683;29;20946;-75
2023/07/09 08:57:37;;;;;;;4.57;3.50;;;;;;;35.70;nan;99739.28;4877250;29;20818;-75
2023/07/09 09:00:08;;;;;;;9.73;5.00;;;;;;;35.60;nan;99739.19;4868077;29;20887;-75
2023/07/09 09:02:59;;;;;;;4.10;3.40;;;;;;;35.72;nan;99744.47;4881291;29;20725;-76
2023/07/09 09:05:25;;;;;;;4.97;3.10;;;;;;;35.89;nan;99736.97;4880979;29;20672;-76
2023/07/09 09:08:02;;;;;;;4.23;3.73;;;;;;;36.08;nan;99729.22;4879072;29;20463;-75
2023/07/09 09:10:42;;;;;;;8.70;3.80;;;;;;;36.29;nan;99725.50;4879852;29;20533;-76
2023/07/09 09:13:13;;;;;;;5.20;3.37;;;;;;;36.43;nan;99716.81;4879291;29;20453;-76
2023/07/09 09:15:42;;;;;;;4.63;3.80;;;;;;;36.39;nan;99716.53;4879932;29;20463;-75
2023/07/09 09:18:28;;;;;;;4.63;3.73;;;;;;;36.30;nan;99718.97;4879451;29;21086;-76
2023/07/09 09:21:03;;;;;;;5.13;3.33;;;;;;;36.30;nan;99707.19;4880111;29;20468;-75
2023/07/09 09:23:39;;;;;;;3.57;3.27;;;;;;;36.41;nan;99708.91;4878037;29;20922;-75
2023/07/09 09:26:15;;;;;;;3.70;3.40;;;;;;;36.55;nan;99701.06;4875789;29;21130;-75
2023/07/09 09:28:40;;;;;;;3.83;3.40;;;;;;;36.71;nan;99702.75;4873120;29;20481;-75
2023/07/09 09:31:10;;;;;;;3.77;3.20;;;;;;;36.92;nan;99705.59;4878546;29;21027;-75
2023/07/09 09:33:44;;;;;;;4.53;3.27;;;;;;;37.14;nan;99700.72;4877220;29;20191;-75
2023/07/09 09:36:25;;;;;;;3.60;3.30;;;;;;;37.18;nan;99701.00;4876695;29;20712;-76
2023/07/09 09:38:52;;;;;;;4.40;3.60;;;;;;;37.22;nan;99701.31;4857268;29;20515;-75
2023/07/09 09:41:26;;;;;;;3.70;3.00;;;;;;;37.37;nan;99687.59;4879896;29;20475;-76
2023/07/09 09:43:54;;;;;;;6.17;3.67;;;;;;;37.40;nan;99695.28;4881059;29;20491;-76
2023/07/09 09:46:22;;;;;;;3.40;2.70;;;;;;;37.39;nan;99693.63;4882679;29;20548;-77
2023/07/09 09:48:50;;;;;;;4.87;3.20;;;;;;;37.34;nan;99694.44;4880600;29;20463;-77
2023/07/09 09:51:17;;;;;;;3.70;3.10;;;;;;;37.42;nan;99693.09;4879502;29;20491;-77
2023/07/09 09:54:14;;;;;;;4.30;3.90;;;;;;;37.41;nan;99694.19;4881092;29;20572;-76
2023/07/09 09:56:42;;;;;;;4.83;3.60;;;;;;;37.32;nan;99693.06;4880623;29;20569;-76
2023/07/09 09:59:18;;;;;;;7.20;3.73;;;;;;;37.27;nan;99688.44;4879190;29;20496;-76
2023/07/09 10:01:43;;;;;;;4.60;3.80;;;;;;;37.47;nan;99690.34;4873855;29;20565;-76
2023/07/09 10:04:15;;;;;;;3.93;3.13;;;;;;;37.67;nan;99684.06;4877430;29;20482;-76
2023/07/09 10:06:45;;;;;;;3.60;3.30;;;;;;;37.69;nan;99681.06;4878625;29;21117;-76
2023/07/09 10:09:46;;;;;;;4.03;3.37;;;;;;;37.80;nan;99677.22;4877798;29;21149;-77
2023/07/09 10:12:14;;;;;;;5.20;3.07;;;;;;;37.92;nan;99677.75;4872824;29;20474;-76
2023/07/09 10:17:37;;;;;;;4.20;3.27;;;;;;;37.84;nan;99684.63;5174543;23;20504;-76
2023/07/09 10:20:23;;;;;;;3.83;3.43;;;;;;;37.85;nan;99679.94;4964305;28;20472;-76
2023/07/09 10:23:09;;;;;;;4.80;3.53;;;;;;;37.91;nan;99680.78;4951798;28;20443;-76
2023/07/09 10:25:48;;;;;;;4.00;3.00;;;;;;;38.01;nan;99670.63;4947970;28;20969;-77
2023/07/09 10:28:33;;;;;;;4.80;3.43;;;;;;;38.11;nan;99668.97;4952465;28;20461;-76
2023/07/09 10:31:06;;;;;;;4.33;2.63;;;;;;;38.20;nan;99661.81;4950237;28;20965;-77
2023/07/09 10:33:53;;;;;;;4.17;3.33;;;;;;;38.23;nan;99667.56;4953448;28;20476;-76
2023/07/09 10:36:42;;;;;;;4.27;3.07;;;;;;;38.15;nan;99664.56;4954079;28;20809;-77
2023/07/09 10:39:16;;;;;;;3.60;2.83;;;;;;;38.12;nan;99670.63;4947735;28;20475;-77
2023/07/09 10:41:43;;;;;;;4.83;3.40;;;;;;;38.21;nan;99666.19;4948831;28;20465;-77
2023/07/09 10:44:39;;;;;;;3.10;2.73;;;;;;;38.34;nan;99662.03;4950437;28;20460;-77
2023/07/09 10:47:14;;;;;;;3.57;3.27;;;;;;;38.54;nan;99661.16;4948795;28;20922;-77
2023/07/09 10:49:42;;;;;;;5.90;2.63;;;;;;;38.65;nan;99654.53;4945582;28;20469;-76
2023/07/09 10:52:20;;;;;;;6.00;3.33;;;;;;;38.68;nan;99662.22;4950378;28;20557;-77
2023/07/09 10:55:38;;;;;;;8.63;3.00;;;;;;;38.63;nan;99665.78;4949827;28;20511;-77
2023/07/09 10:58:28;;;;;;;4.10;3.70;;;;;;;38.58;nan;99662.25;4915692;28;20468;-77
2023/07/09 11:00:54;;;;;;;4.77;3.20;;;;;;;38.55;nan;99657.31;4951437;28;20479;-77
2023/07/09 11:03:29;;;;;;;2.50;2.30;;;;;;;38.51;nan;99657.91;4948684;28;20463;-77
2023/07/09 11:05:54;;;;;;;2.90;2.70;;;;;;;38.43;nan;99654.88;4949593;28;20206;-76
2023/07/09 11:08:36;;;;;;;4.20;3.43;;;;;;;38.42;nan;99650.50;4947648;28;20479;-78
2023/07/09 11:11:10;;;;;;;3.90;2.80;;;;;;;38.44;nan;99657.38;4951232;28;20214;-76
2023/07/09 11:13:41;;;;;;;4.93;2.83;;;;;;;38.54;nan;99650.19;4945762;28;20557;-77
2023/07/09 11:16:14;;;;;;;3.07;2.77;;;;;;;38.66;nan;99647.94;4947420;28;20480;-76
2023/07/09 11:18:39;;;;;;;3.23;2.60;;;;;;;38.75;nan;99648.97;4949159;28;20468;-77
2023/07/09 11:21:14;;;;;;;3.97;3.10;;;;;;;38.83;nan;99637.38;4948380;28;20476;-77
2023/07/09 11:23:49;;;;;;;4.80;2.97;;;;;;;38.82;nan;99635.75;4945334;28;20201;-76
2023/07/09 11:26:22;;;;;;;2.83;2.53;;;;;;;38.74;nan;99644.59;4948211;28;21119;-76
2023/07/09 11:29:11;;;;;;;3.70;3.40;;;;;;;38.69;nan;99644.63;4946099;28;20506;-77
2023/07/09 11:31:46;;;;;;;5.77;3.90;;;;;;;38.67;nan;99639.44;4948085;28;20563;-77
2023/07/09 11:34:14;;;;;;;3.27;2.90;;;;;;;38.61;nan;99642.47;4948070;28;20478;-77
2023/07/09 11:36:55;;;;;;;3.00;2.30;;;;;;;38.62;nan;99641.34;4952305;28;20451;-77
2023/07/09 11:39:39;;;;;;;6.83;3.10;;;;;;;38.58;nan;99648.53;4950734;28;21148;-77
2023/07/09 11:42:23;;;;;;;3.33;3.10;;;;;;;38.37;nan;99643.09;4947838;28;20555;-77
2023/07/09 11:44:53;;;;;;;2.93;2.70;;;;;;;38.16;nan;99645.09;4951342;28;20480;-77
2023/07/09 11:47:23;;;;;;;4.10;3.27;;;;;;;38.06;nan;99639.63;4947915;28;20568;-77
2023/07/09 11:49:58;;;;;;;4.00;3.60;;;;;;;38.08;nan;99632.78;4948610;28;20497;-76
2023/07/09 11:52:42;;;;;;;4.77;3.40;;;;;;;38.18;nan;99622.84;4948744;28;20898;-77
2023/07/09 11:55:22;;;;;;;3.30;3.00;;;;;;;38.26;nan;99622.28;4949502;28;20889;-77
2023/07/09 11:57:52;;;;;;;6.50;3.37;;;;;;;38.29;nan;99618.97;4948828;28;21154;-77
2023/07/09 12:00:17;;;;;;;4.20;3.30;;;;;;;38.37;nan;99620.31;4947142;28;21472;-77
2023/07/09 12:02:43;;;;;;;4.20;3.40;;;;;;;38.37;nan;99621.13;4945111;28;20462;-77
2023/07/09 12:05:09;;;;;;;7.53;3.37;;;;;;;38.35;nan;99615.13;4947287;28;20206;-77
2023/07/09 12:07:35;;;;;;;6.47;2.77;;;;;;;38.39;nan;99615.38;4953257;28;20200;-77